This is the latest recevied weather packets stored in our database for station/object SALT. If no packets are shown the sender has not sent any weather packets the latest 1 day(s).
| Time | Temp. | Humidity | Pressure | Rain* | Wind** | Luminosity | Snow |
|---|---|---|---|---|---|---|---|
| 1778016847 | 14.44° C | 45% | 1015.8 hPa | 0 mm | 4.47 m/s, 327° | - | - |
| 1778016245 | 13.89° C | 44% | 1015.9 hPa | 0 mm | 4.47 m/s, 314° | - | - |
| 1778015642 | 14.44° C | 43% | 1015.9 hPa | 0 mm | 5.36 m/s, 330° | - | - |
| 1778015040 | 13.89° C | 44% | 1016 hPa | 0 mm | 4.47 m/s, 336° | - | - |
| 1778014437 | 14.44° C | 42% | 1015.9 hPa | 0 mm | 3.13 m/s, 341° | - | - |
| 1778013834 | 13.89° C | 47% | 1016 hPa | 0 mm | 5.36 m/s, 330° | - | - |
| 1778013230 | 13.33° C | 48% | 1016 hPa | 0 mm | 5.36 m/s, 283° | - | - |
| 1778012627 | 13.89° C | 46% | 1016 hPa | 0 mm | 4.92 m/s, 354° | - | - |
| 1778012026 | 13.89° C | 50% | 1016.1 hPa | 0 mm | 3.13 m/s, 22° | - | - |
| 1778011422 | 12.78° C | 48% | 1016.2 hPa | 0 mm | 4.92 m/s, 11° | - | - |
| 1778010819 | 13.89° C | 46% | 1016.1 hPa | 0 mm | 4.47 m/s, 354° | - | - |
| 1778010217 | 13.33° C | 48% | 1016.2 hPa | 0 mm | 2.68 m/s, 295° | - | - |
| 1778009611 | 13.33° C | 48% | 1016.1 hPa | 0 mm | 4.02 m/s, 330° | - | - |
| 1778009008 | 13.89° C | 49% | 1016.1 hPa | 0 mm | 2.68 m/s, 354° | - | - |
| 1778007803 | 13.33° C | 48% | 1016.1 hPa | 0 mm | 4.02 m/s, 318° | - | - |
| 1778007200 | 12.78° C | 50% | 1016.2 hPa | 0 mm | 3.13 m/s, 345° | - | - |
| 1778006599 | 12.78° C | 51% | 1016.4 hPa | 0 mm | 2.24 m/s, 316° | - | - |
| 1778005994 | 12.78° C | 49% | 1016.3 hPa | 0 mm | 0.45 m/s, 333° | - | - |
| 1778005390 | 12.78° C | 50% | 1016.2 hPa | 0 mm | 2.68 m/s, 329° | - | - |
| 1778004788 | 12.78° C | 48% | 1016 hPa | 0 mm | 2.24 m/s, 341° | - | - |
| 1778004184 | 12.78° C | 49% | 1016 hPa | 0 mm | 0.89 m/s, 345° | - | - |
| 1778003582 | 12.78° C | 47% | 1015.9 hPa | 0 mm | 2.24 m/s, 291° | - | - |
| 1778002979 | 13.33° C | 47% | 1015.8 hPa | 0 mm | 0.89 m/s, 326° | - | - |
| 1778002378 | 12.78° C | 49% | 1015.9 hPa | 0 mm | 3.58 m/s, 293° | - | - |
| 1778001771 | 12.22° C | 48% | 1015.8 hPa | 0 mm | 1.34 m/s, 330° | - | - |
* Rain latest 24 hours (hover to see other rain measurements)
** Current wind speed in m/s (hover to see current wind gust speed)